createdAt,value
2022-10-18T00:00:37.595Z,6.35
2022-10-18T00:01:39.399Z,6.03
2022-10-18T00:02:41.211Z,6.32
2022-10-18T00:04:49.827Z,6.15
2022-10-18T00:05:51.923Z,5.63
2022-10-18T00:06:53.581Z,6.03
2022-10-18T00:07:55.279Z,5.85
2022-10-18T00:08:56.936Z,5.50
2022-10-18T00:09:58.577Z,4.97
2022-10-18T00:11:00.309Z,5.65
2022-10-18T00:12:02.032Z,5.80
2022-10-18T00:13:04.151Z,5.53
2022-10-18T00:14:06.004Z,5.63
2022-10-18T00:15:08.438Z,5.88
2022-10-18T00:16:14.322Z,5.55
2022-10-18T00:17:16.173Z,5.45
2022-10-18T00:18:18.101Z,5.43
2022-10-18T00:19:19.811Z,5.78
2022-10-18T00:20:21.466Z,5.50
2022-10-18T00:21:25.153Z,5.47
2022-10-18T00:22:26.788Z,5.68
2022-10-18T00:23:29.723Z,6.07
2022-10-18T00:24:31.376Z,6.07
2022-10-18T00:25:33.008Z,5.93
2022-10-18T00:26:34.746Z,5.85
2022-10-18T00:27:37.040Z,5.53
2022-10-18T00:28:39.721Z,4.93
2022-10-18T00:29:41.439Z,5.75
2022-10-18T00:30:43.185Z,5.60
2022-10-18T00:31:44.953Z,5.05
2022-10-18T00:32:46.598Z,5.57
2022-10-18T00:33:52.713Z,5.63
2022-10-18T00:34:54.396Z,5.28
2022-10-18T00:35:56.058Z,5.38
2022-10-18T00:36:57.707Z,5.50
2022-10-18T00:37:59.434Z,5.70
2022-10-18T00:39:02.813Z,5.55
2022-10-18T00:40:05.466Z,5.10
2022-10-18T00:41:09.265Z,5.47
2022-10-18T00:42:22.686Z,5.80
2022-10-18T00:43:24.315Z,5.22
2022-10-18T00:44:25.919Z,5.40
2022-10-18T00:45:27.965Z,5.32
2022-10-18T00:46:32.523Z,4.70
2022-10-18T00:47:35.868Z,5.55
2022-10-18T00:48:37.552Z,5.53
2022-10-18T00:49:51.732Z,5.18
2022-10-18T00:50:53.678Z,5.25
2022-10-18T00:52:01.029Z,4.95
2022-10-18T00:53:05.070Z,5.57
2022-10-18T00:54:06.821Z,5.32
2022-10-18T00:55:09.417Z,5.57
2022-10-18T00:56:12.444Z,5.78
2022-10-18T00:57:15.068Z,5.90
2022-10-18T00:58:19.977Z,5.57
2022-10-18T00:59:22.314Z,5.25
2022-10-18T01:00:24.281Z,5.07
2022-10-18T01:01:28.461Z,5.13
2022-10-18T01:02:32.924Z,4.88
2022-10-18T01:03:36.400Z,5.60
2022-10-18T01:04:38.138Z,4.90
2022-10-18T01:05:44.848Z,5.07
2022-10-18T01:07:10.969Z,5.22
2022-10-18T01:08:57.521Z,5.28
2022-10-18T01:10:20.402Z,5.53
2022-10-18T01:11:37.006Z,5.30
2022-10-18T01:13:09.731Z,5.70
2022-10-18T01:14:35.898Z,5.80
2022-10-18T01:17:09.201Z,5.43
2022-10-18T01:18:25.223Z,5.60
2022-10-18T01:19:38.976Z,4.65
2022-10-18T01:20:55.639Z,5.03
2022-10-18T01:22:08.377Z,4.93
2022-10-18T01:23:19.473Z,5.47
2022-10-18T01:24:39.787Z,5.10
2022-10-18T01:26:02.264Z,5.00
2022-10-18T01:27:46.188Z,5.30
2022-10-18T01:29:18.839Z,4.80
2022-10-18T01:30:32.423Z,4.72
2022-10-18T01:31:45.446Z,4.68
2022-10-18T01:33:05.572Z,5.00
2022-10-18T01:34:09.695Z,5.00
2022-10-18T01:35:18.893Z,5.15
2022-10-18T01:36:26.065Z,5.40
2022-10-18T01:37:30.019Z,5.20
2022-10-18T01:38:33.344Z,4.88
2022-10-18T01:39:42.656Z,4.90
2022-10-18T01:40:47.572Z,4.68
2022-10-18T01:41:51.576Z,5.35
2022-10-18T01:42:53.280Z,4.63
2022-10-18T01:43:59.910Z,5.20
2022-10-18T01:45:03.939Z,4.72
2022-10-18T01:46:06.292Z,5.45
2022-10-18T01:47:11.355Z,5.32
2022-10-18T01:48:14.202Z,5.30
2022-10-18T01:49:15.930Z,4.90
2022-10-18T01:50:29.752Z,4.95
2022-10-18T01:51:32.932Z,4.97
2022-10-18T01:52:34.870Z,4.82
2022-10-18T01:53:36.627Z,5.38
2022-10-18T01:54:41.602Z,5.28
2022-10-18T01:55:51.174Z,5.20
2022-10-18T01:57:45.388Z,5.50
2022-10-18T01:59:11.890Z,4.78
2022-10-18T02:00:19.166Z,5.22
2022-10-18T02:01:45.171Z,5.30
2022-10-18T02:03:21.425Z,4.90
2022-10-18T02:04:38.444Z,5.53
2022-10-18T02:05:56.420Z,6.05
2022-10-18T02:07:06.035Z,5.68
2022-10-18T02:08:30.067Z,5.32
2022-10-18T02:09:47.266Z,5.38
2022-10-18T02:10:53.518Z,4.57
2022-10-18T02:11:57.232Z,5.25
2022-10-18T02:13:00.146Z,5.35
2022-10-18T02:14:08.574Z,5.05
2022-10-18T02:15:14.487Z,5.75
2022-10-18T02:16:49.485Z,5.88
2022-10-18T02:17:54.430Z,5.40
2022-10-18T02:19:01.970Z,5.95
2022-10-18T02:20:07.016Z,5.53
2022-10-18T02:21:13.460Z,5.60
2022-10-18T02:22:17.161Z,6.18
2022-10-18T02:23:23.760Z,5.63
2022-10-18T02:24:34.684Z,6.05
2022-10-18T02:25:37.195Z,5.65
2022-10-18T02:26:39.339Z,5.72
2022-10-18T02:27:41.422Z,5.60
2022-10-18T02:28:45.062Z,5.30
2022-10-18T02:29:47.164Z,6.15
2022-10-18T02:30:58.972Z,5.15
2022-10-18T02:32:17.640Z,5.47
2022-10-18T02:33:32.595Z,5.90
2022-10-18T02:34:46.681Z,7.13
2022-10-18T02:35:54.498Z,11.32
2022-10-18T02:36:59.534Z,9.00
2022-10-18T02:38:04.447Z,9.23
2022-10-18T02:39:14.714Z,8.90
2022-10-18T02:40:17.381Z,6.93
2022-10-18T02:41:27.207Z,7.10
2022-10-18T02:42:40.490Z,6.15
2022-10-18T02:43:42.148Z,5.45
2022-10-18T02:44:43.843Z,5.20
2022-10-18T02:45:45.529Z,5.82
2022-10-18T02:46:47.974Z,5.20
2022-10-18T02:47:49.651Z,4.78
2022-10-18T02:48:51.426Z,4.97
2022-10-18T02:49:53.130Z,4.88
2022-10-18T02:50:54.787Z,5.15
2022-10-18T02:51:56.437Z,5.22
2022-10-18T02:52:58.084Z,4.70
2022-10-18T02:53:59.797Z,4.63
2022-10-18T02:55:01.961Z,4.75
2022-10-18T02:56:03.706Z,4.78
2022-10-18T02:57:05.389Z,4.70
2022-10-18T02:58:07.088Z,4.82
2022-10-18T02:59:08.772Z,5.22
2022-10-18T03:00:10.974Z,4.80
2022-10-18T03:01:12.694Z,5.18
2022-10-18T03:02:14.435Z,5.03
2022-10-18T03:03:16.074Z,4.90
2022-10-18T03:04:17.811Z,4.70
2022-10-18T03:05:19.623Z,4.93
2022-10-18T03:06:21.289Z,4.60
2022-10-18T03:07:23.051Z,5.00
2022-10-18T03:08:24.769Z,4.93
2022-10-18T03:09:26.507Z,4.55
2022-10-18T03:10:28.176Z,4.70
2022-10-18T03:11:29.840Z,4.85
2022-10-18T03:12:31.493Z,4.68
2022-10-18T03:13:34.423Z,4.95
2022-10-18T03:14:36.274Z,4.57
2022-10-18T03:15:38.125Z,4.88
2022-10-18T03:16:39.889Z,5.05
2022-10-18T03:17:41.542Z,5.20
2022-10-18T03:18:43.269Z,4.70
2022-10-18T03:19:44.974Z,5.15
2022-10-18T03:20:46.665Z,5.18
2022-10-18T03:21:48.406Z,5.35
2022-10-18T03:22:50.182Z,5.15
2022-10-18T03:23:51.833Z,5.20
2022-10-18T03:24:54.088Z,4.97
2022-10-18T03:25:55.724Z,5.50
2022-10-18T03:26:57.477Z,5.07
2022-10-18T03:27:59.116Z,5.43
2022-10-18T03:29:00.915Z,5.60
2022-10-18T03:30:02.636Z,5.60
2022-10-18T03:31:05.104Z,5.13
2022-10-18T03:32:07.119Z,4.97
2022-10-18T03:33:08.765Z,5.15
2022-10-18T03:34:10.470Z,4.80
2022-10-18T03:35:12.231Z,5.38
2022-10-18T03:36:14.020Z,5.68
2022-10-18T03:37:16.437Z,5.78
2022-10-18T03:38:18.087Z,6.22
2022-10-18T03:39:19.758Z,5.90
2022-10-18T03:40:21.472Z,6.22
2022-10-18T03:41:23.160Z,6.60
2022-10-18T03:42:24.856Z,6.68
2022-10-18T03:43:26.501Z,6.25
2022-10-18T03:44:28.169Z,6.25
2022-10-18T03:45:31.365Z,6.32
2022-10-18T03:46:33.379Z,6.03
2022-10-18T03:47:35.077Z,7.40
2022-10-18T03:48:36.741Z,6.35
2022-10-18T03:49:38.502Z,6.13
2022-10-18T03:50:40.299Z,6.10
2022-10-18T03:51:42.073Z,5.97
2022-10-18T03:52:43.973Z,5.57
2022-10-18T03:53:45.627Z,6.90
2022-10-18T03:54:47.278Z,5.95
2022-10-18T03:55:53.334Z,5.55
2022-10-18T03:56:55.008Z,6.38
2022-10-18T03:57:56.817Z,6.85
2022-10-18T03:58:58.515Z,6.80
2022-10-18T04:00:00.183Z,6.03
2022-10-18T04:01:01.872Z,6.05
2022-10-18T04:02:03.638Z,6.10
2022-10-18T04:03:05.380Z,6.63
2022-10-18T04:04:07.050Z,6.22
2022-10-18T04:05:09.100Z,6.07
2022-10-18T04:06:10.859Z,6.25
2022-10-18T04:07:12.515Z,6.57
2022-10-18T04:08:15.354Z,6.85
2022-10-18T04:09:17.056Z,6.07
2022-10-18T04:10:18.857Z,5.97
2022-10-18T04:11:20.547Z,6.88
2022-10-18T04:12:22.289Z,6.30
2022-10-18T04:13:23.924Z,5.82
2022-10-18T04:14:25.758Z,5.28
2022-10-18T04:15:27.390Z,5.60
2022-10-18T04:16:29.122Z,6.07
2022-10-18T04:17:31.031Z,6.25
2022-10-18T04:18:32.843Z,6.30
2022-10-18T04:19:34.515Z,6.32
2022-10-18T04:20:36.183Z,6.35
2022-10-18T04:21:37.926Z,5.60
2022-10-18T04:22:39.651Z,5.68
2022-10-18T04:23:41.362Z,5.60
2022-10-18T04:24:43.046Z,5.90
2022-10-18T04:25:44.671Z,6.63
2022-10-18T04:26:46.350Z,13.30
2022-10-18T04:27:48.181Z,12.85
2022-10-18T04:28:49.960Z,7.15
2022-10-18T04:29:51.657Z,5.95
2022-10-18T04:30:53.617Z,5.38
2022-10-18T04:31:55.274Z,5.50
2022-10-18T04:32:56.968Z,5.53
2022-10-18T04:33:58.615Z,5.45
2022-10-18T04:35:00.253Z,5.47
2022-10-18T04:36:02.226Z,5.75
2022-10-18T04:37:03.889Z,5.30
2022-10-18T04:38:05.587Z,5.55
2022-10-18T04:39:07.322Z,5.80
2022-10-18T04:40:09.655Z,6.15
2022-10-18T04:41:11.303Z,5.63
2022-10-18T04:42:13.420Z,5.93
2022-10-18T04:43:15.352Z,5.78
2022-10-18T04:44:16.991Z,5.40
2022-10-18T04:45:18.624Z,5.15
2022-10-18T04:46:20.371Z,5.68
2022-10-18T04:47:22.071Z,5.68
2022-10-18T04:48:23.736Z,6.88
2022-10-18T04:49:25.449Z,5.60
2022-10-18T04:50:27.503Z,5.45
2022-10-18T04:51:29.670Z,5.70
2022-10-18T04:52:31.745Z,5.45
2022-10-18T04:53:33.410Z,5.60
2022-10-18T04:54:35.243Z,5.78
2022-10-18T04:55:36.898Z,5.28
2022-10-18T04:56:38.633Z,5.72
2022-10-18T04:57:40.313Z,5.82
2022-10-18T04:58:41.947Z,5.75
2022-10-18T04:59:43.615Z,5.55
2022-10-18T05:00:45.312Z,5.68
2022-10-18T05:01:47.287Z,6.13
2022-10-18T05:02:49.081Z,6.22
2022-10-18T05:03:54.578Z,6.32
2022-10-18T05:04:56.214Z,6.38
2022-10-18T05:06:01.640Z,5.60
2022-10-18T05:07:06.681Z,6.05
2022-10-18T05:08:08.452Z,6.07
2022-10-18T05:09:10.134Z,6.18
2022-10-18T05:10:11.854Z,6.07
2022-10-18T05:11:13.553Z,5.45
2022-10-18T05:12:15.293Z,6.75
2022-10-18T05:13:17.063Z,6.22
2022-10-18T05:14:18.880Z,5.55
2022-10-18T05:15:20.560Z,5.82
2022-10-18T05:16:22.290Z,6.03
2022-10-18T05:17:23.948Z,6.28
2022-10-18T05:18:25.675Z,5.97
2022-10-18T05:19:27.407Z,5.85
2022-10-18T05:20:29.082Z,5.90
2022-10-18T05:21:30.841Z,6.65
2022-10-18T05:22:33.244Z,6.25
2022-10-18T05:23:35.125Z,5.85
2022-10-18T05:24:36.774Z,6.50
2022-10-18T05:25:39.783Z,5.93
2022-10-18T05:26:41.431Z,6.35
2022-10-18T05:27:43.076Z,6.18
2022-10-18T05:28:44.831Z,6.78
2022-10-18T05:29:46.531Z,6.28
2022-10-18T05:30:48.210Z,5.85
2022-10-18T05:31:50.385Z,5.75
2022-10-18T05:32:52.038Z,5.28
2022-10-18T05:33:53.689Z,5.30
2022-10-18T05:34:55.348Z,5.43
2022-10-18T05:35:57.082Z,5.25
2022-10-18T05:36:59.462Z,4.97
2022-10-18T05:38:06.043Z,5.15
2022-10-18T05:39:07.808Z,5.35
2022-10-18T05:40:10.041Z,4.72
2022-10-18T05:41:12.846Z,5.05
2022-10-18T05:42:14.544Z,5.78
2022-10-18T05:43:17.882Z,5.15
2022-10-18T05:44:19.719Z,5.43
2022-10-18T05:45:21.366Z,6.28
2022-10-18T05:46:23.044Z,5.00
2022-10-18T05:47:24.810Z,5.45
2022-10-18T05:48:26.834Z,4.70
2022-10-18T05:49:28.484Z,4.75
2022-10-18T05:50:30.135Z,5.00
2022-10-18T05:51:31.900Z,5.32
2022-10-18T05:52:33.858Z,4.55
2022-10-18T05:53:37.105Z,5.53
2022-10-18T05:54:39.615Z,4.47
2022-10-18T05:55:41.253Z,5.05
2022-10-18T05:56:42.971Z,4.47
2022-10-18T05:57:49.955Z,5.20
2022-10-18T05:58:52.340Z,4.65
2022-10-18T05:59:54.013Z,4.63
2022-10-18T06:00:59.962Z,5.38
2022-10-18T06:02:01.645Z,5.05
2022-10-18T06:03:03.351Z,5.35
2022-10-18T06:04:05.626Z,5.22
2022-10-18T06:05:07.594Z,5.18
2022-10-18T06:06:11.740Z,4.68
2022-10-18T06:07:13.527Z,5.00
2022-10-18T06:08:15.208Z,5.18
2022-10-18T06:09:16.854Z,4.72
2022-10-18T06:10:18.615Z,4.50
2022-10-18T06:11:20.767Z,5.30
2022-10-18T06:12:22.418Z,4.70
2022-10-18T06:13:24.300Z,5.00
2022-10-18T06:14:26.023Z,4.75
2022-10-18T06:15:27.766Z,5.00
2022-10-18T06:16:32.464Z,4.45
2022-10-18T06:17:34.753Z,4.63
2022-10-18T06:18:37.178Z,4.82
2022-10-18T06:19:38.817Z,4.90
2022-10-18T06:20:40.521Z,4.00
2022-10-18T06:21:43.929Z,4.85
2022-10-18T06:22:45.564Z,4.57
2022-10-18T06:23:50.840Z,4.97
2022-10-18T06:24:57.128Z,5.25
2022-10-18T06:26:10.861Z,5.03
2022-10-18T06:27:12.619Z,4.82
2022-10-18T06:28:14.287Z,4.85
2022-10-18T06:29:16.061Z,5.20
2022-10-18T06:30:17.763Z,5.00
2022-10-18T06:31:20.726Z,4.90
2022-10-18T06:32:22.406Z,4.63
2022-10-18T06:33:24.181Z,4.90
2022-10-18T06:34:25.891Z,5.95
2022-10-18T06:35:27.586Z,5.00
2022-10-18T06:36:29.302Z,4.82
2022-10-18T06:37:31.336Z,5.28
2022-10-18T06:38:33.798Z,5.00
2022-10-18T06:39:35.446Z,5.15
2022-10-18T06:40:38.311Z,4.68
2022-10-18T06:41:39.969Z,4.70
2022-10-18T06:42:43.572Z,5.05
2022-10-18T06:43:50.661Z,5.25
2022-10-18T06:44:52.311Z,4.85
2022-10-18T06:45:54.509Z,5.22
2022-10-18T06:46:56.216Z,5.25
2022-10-18T06:47:58.681Z,5.00
2022-10-18T06:49:00.322Z,4.93
2022-10-18T06:50:02.157Z,5.15
2022-10-18T06:51:06.698Z,4.93
2022-10-18T06:52:08.413Z,4.90
2022-10-18T06:53:10.140Z,5.10
2022-10-18T06:54:18.044Z,5.10
2022-10-18T06:55:19.970Z,4.85
2022-10-18T06:56:21.767Z,5.15
2022-10-18T06:57:23.416Z,5.00
2022-10-18T06:58:25.196Z,5.68
2022-10-18T06:59:29.002Z,4.45
2022-10-18T07:00:32.919Z,5.30
2022-10-18T07:01:34.726Z,5.00
2022-10-18T07:02:37.610Z,4.97
2022-10-18T07:03:40.103Z,5.60
2022-10-18T07:04:41.787Z,4.90
2022-10-18T07:05:43.542Z,3.88
2022-10-18T07:06:45.676Z,4.25
2022-10-18T07:07:47.335Z,4.07
2022-10-18T07:08:50.815Z,4.55
2022-10-18T07:09:52.506Z,4.30
2022-10-18T07:10:54.363Z,4.65
2022-10-18T07:11:56.018Z,4.00
2022-10-18T07:13:19.677Z,4.18
2022-10-18T07:14:19.367Z,3.95
2022-10-18T07:15:24.176Z,4.10
2022-10-18T07:16:25.931Z,3.85
2022-10-18T07:17:28.031Z,4.00
2022-10-18T07:18:29.778Z,3.42
2022-10-18T07:19:31.505Z,4.57
2022-10-18T07:20:33.847Z,3.63
2022-10-18T07:21:35.542Z,4.03
2022-10-18T07:22:38.309Z,3.58
2022-10-18T07:23:42.513Z,3.60
2022-10-18T07:24:44.288Z,3.67
2022-10-18T07:25:46.096Z,3.80
2022-10-18T07:26:47.772Z,3.65
2022-10-18T07:27:49.443Z,4.22
2022-10-18T07:28:55.937Z,3.50
2022-10-18T07:29:58.107Z,3.75
2022-10-18T07:31:06.249Z,3.70
2022-10-18T07:32:08.017Z,3.65
2022-10-18T07:33:09.685Z,3.75
2022-10-18T07:34:13.576Z,3.75
2022-10-18T07:35:15.285Z,3.20
2022-10-18T07:36:17.577Z,3.08
2022-10-18T07:37:19.264Z,3.38
2022-10-18T07:38:20.968Z,3.38
2022-10-18T07:39:22.733Z,3.38
2022-10-18T07:40:24.398Z,3.63
2022-10-18T07:41:26.408Z,3.58
2022-10-18T07:42:28.132Z,3.25
2022-10-18T07:43:30.798Z,3.92
2022-10-18T07:44:32.485Z,3.42
2022-10-18T07:45:34.183Z,3.88
2022-10-18T07:46:35.962Z,3.30
2022-10-18T07:47:37.938Z,3.40
2022-10-18T07:48:39.857Z,3.35
2022-10-18T07:49:41.567Z,3.65
2022-10-18T07:50:43.210Z,4.13
2022-10-18T07:51:44.861Z,3.90
2022-10-18T07:52:46.513Z,3.70
2022-10-18T07:53:48.512Z,3.90
2022-10-18T07:56:03.393Z,3.45
2022-10-18T07:57:07.522Z,3.42
2022-10-18T07:58:09.179Z,3.53
2022-10-18T07:59:11.474Z,3.40
2022-10-18T08:00:13.441Z,3.70
2022-10-18T08:01:15.881Z,3.17
2022-10-18T08:02:17.686Z,3.67
2022-10-18T08:03:19.690Z,3.28
2022-10-18T08:04:21.485Z,3.90
2022-10-18T08:05:23.284Z,3.55
2022-10-18T08:06:25.020Z,3.70
2022-10-18T08:07:26.800Z,3.75
2022-10-18T08:08:29.711Z,4.07
2022-10-18T08:09:31.347Z,3.88
2022-10-18T08:10:35.179Z,3.83
2022-10-18T08:11:36.828Z,3.95
2022-10-18T08:12:38.497Z,4.18
2022-10-18T08:13:40.741Z,4.05
2022-10-18T08:14:42.669Z,3.90
2022-10-18T08:15:45.017Z,3.83
2022-10-18T08:16:46.730Z,4.20
2022-10-18T08:17:48.402Z,4.15
2022-10-18T08:18:50.181Z,3.70
2022-10-18T08:20:04.785Z,3.63
2022-10-18T08:21:15.780Z,3.60
2022-10-18T08:22:17.490Z,4.10
2022-10-18T08:23:19.161Z,3.38
2022-10-18T08:24:20.842Z,3.80
2022-10-18T08:25:22.521Z,3.25
2022-10-18T08:26:24.264Z,3.70
2022-10-18T08:27:26.516Z,4.00
2022-10-18T08:28:28.279Z,4.10
2022-10-18T08:29:32.050Z,3.83
2022-10-18T08:30:35.982Z,3.70
2022-10-18T08:31:37.729Z,4.05
2022-10-18T08:32:39.417Z,3.78
2022-10-18T08:33:41.177Z,4.03
2022-10-18T08:34:42.829Z,3.40
2022-10-18T08:35:54.147Z,3.80
2022-10-18T08:36:55.814Z,3.47
2022-10-18T08:37:57.888Z,4.00
2022-10-18T08:38:59.701Z,4.10
2022-10-18T08:40:01.495Z,3.97
2022-10-18T08:41:26.617Z,4.38
2022-10-18T08:42:49.698Z,3.97
2022-10-18T08:44:06.370Z,3.78
2022-10-18T08:45:29.741Z,3.60
2022-10-18T08:46:37.184Z,3.70
2022-10-18T08:47:49.307Z,3.63
2022-10-18T08:48:55.264Z,3.45
2022-10-18T08:50:01.071Z,3.20
2022-10-18T08:51:07.360Z,3.05
2022-10-18T08:52:45.206Z,3.67
2022-10-18T08:53:57.423Z,3.85
2022-10-18T08:55:10.090Z,3.58
2022-10-18T08:56:15.077Z,3.78
2022-10-18T08:57:18.409Z,3.70
2022-10-18T08:58:30.877Z,3.83
2022-10-18T08:59:39.185Z,3.42
2022-10-18T09:00:50.176Z,3.65
2022-10-18T09:02:04.715Z,3.60
2022-10-18T09:03:26.899Z,3.85
2022-10-18T09:04:36.887Z,3.90
2022-10-18T09:05:48.873Z,3.70
2022-10-18T09:07:00.818Z,3.95
2022-10-18T09:08:14.234Z,3.95
2022-10-18T09:09:24.988Z,4.57
2022-10-18T09:10:45.307Z,3.30
2022-10-18T09:11:58.114Z,3.67
2022-10-18T09:13:24.502Z,4.55
2022-10-18T09:14:36.634Z,3.67
2022-10-18T09:15:49.608Z,3.88
2022-10-18T09:17:16.261Z,4.03
2022-10-18T09:18:39.769Z,3.92
2022-10-18T09:20:02.122Z,4.05
2022-10-18T09:21:35.609Z,3.95
2022-10-18T09:22:54.073Z,3.72
2022-10-18T09:24:02.263Z,3.55
2022-10-18T09:25:16.460Z,3.95
2022-10-18T09:26:23.761Z,3.55
2022-10-18T09:27:46.082Z,3.40
2022-10-18T09:29:13.543Z,3.90
2022-10-18T09:30:26.658Z,3.70
2022-10-18T09:31:49.706Z,3.90
2022-10-18T09:33:01.725Z,3.75
2022-10-18T09:34:10.434Z,4.28
2022-10-18T09:35:25.582Z,4.32
2022-10-18T09:36:35.662Z,3.67
2022-10-18T09:37:38.055Z,3.70
2022-10-18T09:38:48.827Z,3.80
2022-10-18T09:39:59.401Z,3.83
2022-10-18T09:41:08.861Z,3.67
2022-10-18T09:42:28.719Z,3.83
2022-10-18T09:43:43.859Z,3.35
2022-10-18T09:44:53.682Z,4.07
2022-10-18T09:45:56.845Z,4.85
2022-10-18T09:47:26.819Z,3.80
2022-10-18T09:48:46.519Z,3.70
2022-10-18T09:49:55.014Z,3.88
2022-10-18T09:51:02.484Z,3.80
2022-10-18T09:52:09.244Z,3.97
2022-10-18T09:53:12.325Z,4.32
2022-10-18T09:54:26.240Z,4.13
2022-10-18T09:55:35.067Z,3.65
2022-10-18T09:56:45.107Z,3.72
2022-10-18T09:58:08.226Z,4.10
2022-10-18T09:59:24.626Z,3.97
2022-10-18T10:00:31.484Z,3.53
2022-10-18T10:01:33.815Z,3.30
2022-10-18T10:02:35.639Z,4.20
2022-10-18T10:03:37.602Z,3.60
2022-10-18T10:04:39.296Z,4.03
2022-10-18T10:05:42.069Z,4.32
2022-10-18T10:06:53.548Z,3.75
2022-10-18T10:07:59.977Z,3.70
2022-10-18T10:09:14.886Z,3.67
2022-10-18T10:10:21.609Z,3.45
2022-10-18T10:11:27.946Z,3.55
2022-10-18T10:12:35.631Z,3.47
2022-10-18T10:13:37.315Z,3.92
2022-10-18T10:14:44.409Z,3.97
2022-10-18T10:15:52.179Z,3.72
2022-10-18T10:17:03.875Z,3.42
2022-10-18T10:18:21.604Z,3.97
2022-10-18T10:20:20.638Z,4.18
2022-10-18T10:21:22.608Z,3.60
2022-10-18T10:22:32.680Z,4.18
2022-10-18T10:23:44.672Z,4.15
2022-10-18T10:24:51.200Z,4.10
2022-10-18T10:26:01.234Z,3.92
2022-10-18T10:27:06.223Z,4.30
2022-10-18T10:28:18.522Z,3.85
2022-10-18T10:29:47.780Z,4.10
2022-10-18T10:30:50.089Z,4.47
2022-10-18T10:32:19.805Z,4.25
2022-10-18T10:33:38.935Z,3.95
2022-10-18T10:34:44.883Z,3.90
2022-10-18T10:35:58.817Z,4.43
2022-10-18T10:37:00.477Z,4.32
2022-10-18T10:38:03.125Z,4.05
2022-10-18T10:39:19.387Z,3.65
2022-10-18T10:40:28.530Z,3.53
2022-10-18T10:42:37.999Z,3.50
2022-10-18T10:43:40.444Z,3.70
2022-10-18T10:44:54.596Z,4.63
2022-10-18T10:46:05.353Z,3.78
2022-10-18T10:47:07.077Z,3.80
2022-10-18T10:48:15.382Z,3.85
2022-10-18T10:49:41.173Z,3.80
2022-10-18T10:50:58.294Z,3.65
2022-10-18T10:52:15.387Z,3.40
2022-10-18T10:53:32.669Z,3.60
2022-10-18T10:54:39.137Z,3.97
2022-10-18T10:55:40.848Z,3.03
2022-10-18T10:56:51.426Z,3.35
2022-10-18T10:57:53.856Z,3.90
2022-10-18T10:59:01.202Z,3.80
2022-10-18T11:00:04.331Z,3.90
2022-10-18T11:01:36.501Z,3.78
2022-10-18T11:02:38.226Z,3.67
2022-10-18T11:03:46.880Z,3.45
2022-10-18T11:04:51.417Z,3.58
2022-10-18T11:05:58.857Z,3.50
2022-10-18T11:07:04.614Z,3.72
2022-10-18T11:08:06.464Z,3.05
2022-10-18T11:09:26.872Z,3.67
2022-10-18T11:10:34.860Z,3.58
2022-10-18T11:11:46.738Z,3.60
2022-10-18T11:13:23.952Z,3.78
2022-10-18T11:14:30.402Z,3.50
2022-10-18T11:15:52.565Z,3.80
2022-10-18T11:17:08.440Z,3.63
2022-10-18T11:18:34.338Z,3.40
2022-10-18T11:19:45.909Z,3.80
2022-10-18T11:21:01.398Z,3.58
2022-10-18T11:22:06.075Z,3.38
2022-10-18T11:23:18.127Z,3.30
2022-10-18T11:24:20.872Z,3.97
2022-10-18T11:25:29.232Z,3.47
2022-10-18T11:26:43.708Z,3.40
2022-10-18T11:28:03.273Z,3.30
2022-10-18T11:29:23.026Z,3.88
2022-10-18T11:30:36.400Z,3.70
2022-10-18T11:31:41.083Z,3.78
2022-10-18T11:33:12.033Z,3.38
2022-10-18T11:34:36.867Z,3.65
2022-10-18T11:35:41.274Z,4.10
2022-10-18T11:37:09.689Z,4.18
2022-10-18T11:38:25.341Z,3.65
2022-10-18T11:39:49.804Z,3.55
2022-10-18T11:40:54.296Z,3.50
2022-10-18T11:42:02.281Z,3.55
2022-10-18T11:43:09.990Z,3.58
2022-10-18T11:44:27.622Z,3.55
2022-10-18T11:45:54.005Z,3.60
2022-10-18T11:46:58.264Z,3.40
2022-10-18T11:48:13.727Z,3.80
2022-10-18T11:49:41.638Z,3.42
2022-10-18T11:51:09.447Z,4.03
2022-10-18T11:52:15.861Z,3.80
2022-10-18T11:53:29.432Z,3.58
2022-10-18T11:54:48.945Z,4.03
2022-10-18T11:56:47.600Z,3.40
2022-10-18T11:58:22.404Z,3.72
2022-10-18T11:59:37.973Z,3.58
2022-10-18T12:00:53.957Z,3.42
2022-10-18T12:01:58.267Z,3.85
2022-10-18T12:02:59.938Z,3.75
2022-10-18T12:04:24.626Z,3.70
2022-10-18T12:05:27.519Z,4.13
2022-10-18T12:06:35.493Z,3.63
2022-10-18T12:07:44.077Z,3.45
2022-10-18T12:08:50.015Z,3.15
2022-10-18T12:09:55.175Z,3.22
2022-10-18T12:11:05.442Z,3.75
2022-10-18T12:12:10.260Z,3.65
2022-10-18T12:13:25.757Z,3.20
2022-10-18T12:14:33.492Z,3.78
2022-10-18T12:15:39.568Z,3.60
2022-10-18T12:16:51.476Z,3.60
2022-10-18T12:17:59.580Z,3.40
2022-10-18T12:19:11.729Z,2.90
2022-10-18T12:20:50.908Z,3.17
2022-10-18T12:21:53.522Z,3.50
2022-10-18T12:23:07.533Z,3.58
2022-10-18T12:24:16.173Z,3.50
2022-10-18T12:25:18.913Z,3.40
2022-10-18T12:26:21.970Z,3.88
2022-10-18T12:27:36.672Z,3.38
2022-10-18T12:29:07.117Z,3.47
2022-10-18T12:30:23.928Z,3.10
2022-10-18T12:31:35.130Z,3.70
2022-10-18T12:32:37.957Z,3.80
2022-10-18T12:33:44.918Z,3.15
2022-10-18T12:34:58.011Z,3.97
2022-10-18T12:35:59.617Z,3.53
2022-10-18T12:37:10.140Z,3.53
2022-10-18T12:38:26.939Z,3.15
2022-10-18T12:39:43.762Z,3.90
2022-10-18T12:40:55.959Z,3.30
2022-10-18T12:41:57.975Z,3.72
2022-10-18T12:42:59.823Z,3.22
2022-10-18T12:44:26.622Z,3.47
2022-10-18T12:45:33.514Z,3.30
2022-10-18T12:46:49.811Z,3.08
2022-10-18T12:47:52.292Z,3.28
2022-10-18T12:49:05.605Z,3.65
2022-10-18T12:50:28.653Z,3.40
2022-10-18T12:51:30.488Z,3.60
2022-10-18T12:52:37.213Z,3.75
2022-10-18T12:53:39.888Z,3.25
2022-10-18T12:55:00.452Z,3.60
2022-10-18T12:56:29.723Z,3.20
2022-10-18T12:57:52.858Z,3.10
2022-10-18T12:59:13.088Z,3.35
2022-10-18T13:00:34.963Z,3.30
2022-10-18T13:01:52.106Z,3.47
2022-10-18T13:03:31.190Z,3.00
2022-10-18T13:04:34.893Z,3.20
2022-10-18T13:05:53.476Z,3.28
2022-10-18T13:06:59.704Z,3.15
2022-10-18T13:08:29.365Z,3.15
2022-10-18T13:09:36.154Z,3.03
2022-10-18T13:10:38.304Z,3.05
2022-10-18T13:11:40.484Z,3.30
2022-10-18T13:12:59.000Z,3.30
2022-10-18T13:14:25.541Z,3.13
2022-10-18T13:15:41.516Z,3.00
2022-10-18T13:17:06.060Z,2.97
2022-10-18T13:18:19.054Z,3.03
2022-10-18T13:19:29.885Z,3.13
2022-10-18T13:20:40.819Z,2.88
2022-10-18T13:22:08.661Z,3.03
2022-10-18T13:23:38.406Z,2.90
2022-10-18T13:25:04.304Z,2.90
2022-10-18T13:26:20.082Z,2.90
2022-10-18T13:27:49.151Z,3.40
2022-10-18T13:29:34.311Z,3.45
2022-10-18T13:30:48.215Z,3.88
2022-10-18T13:31:59.214Z,3.42
2022-10-18T13:33:19.790Z,3.38
2022-10-18T13:34:22.522Z,3.60
2022-10-18T13:35:55.115Z,3.95
2022-10-18T13:37:11.795Z,3.35
2022-10-18T13:38:47.422Z,3.30
2022-10-18T13:39:49.243Z,3.60
2022-10-18T13:41:21.313Z,3.50
2022-10-18T13:42:33.066Z,3.20
2022-10-18T13:43:53.461Z,3.47
2022-10-18T13:44:55.202Z,3.45
2022-10-18T13:45:56.970Z,2.90
2022-10-18T13:46:58.642Z,3.30
2022-10-18T13:48:31.295Z,3.20
2022-10-18T13:49:38.707Z,3.72
2022-10-18T13:50:43.185Z,3.45
2022-10-18T13:52:06.374Z,3.28
2022-10-18T13:53:19.849Z,3.17
2022-10-18T13:54:46.278Z,3.05
2022-10-18T13:56:09.219Z,3.08
2022-10-18T13:57:26.207Z,3.15
2022-10-18T13:59:13.033Z,2.92
2022-10-18T14:00:31.198Z,2.92
2022-10-18T14:01:52.773Z,3.15
2022-10-18T14:03:31.601Z,2.92
2022-10-18T14:05:16.892Z,2.50
2022-10-18T14:06:33.778Z,2.80
2022-10-18T14:07:36.781Z,2.70
2022-10-18T14:09:13.822Z,2.30
2022-10-18T14:10:50.223Z,2.67
2022-10-18T14:12:08.916Z,2.88
2022-10-18T14:13:20.521Z,2.92
2022-10-18T14:14:34.513Z,3.38
2022-10-18T14:15:43.476Z,3.53
2022-10-18T14:17:08.652Z,3.20
2022-10-18T14:18:19.017Z,3.08
2022-10-18T14:19:34.231Z,3.50
2022-10-18T14:20:55.320Z,3.17
2022-10-18T14:22:14.079Z,3.33
2022-10-18T14:23:24.788Z,3.65
2022-10-18T14:24:27.625Z,3.47
2022-10-18T14:25:33.020Z,3.20
2022-10-18T14:26:34.714Z,3.33
2022-10-18T14:27:37.097Z,3.90
2022-10-18T14:28:58.578Z,3.58
2022-10-18T14:30:17.715Z,3.70
2022-10-18T14:31:20.309Z,3.67
2022-10-18T14:32:29.454Z,3.65
2022-10-18T14:33:38.317Z,3.90
2022-10-18T14:34:44.366Z,3.33
2022-10-18T14:35:59.240Z,2.63
2022-10-18T14:37:01.960Z,3.60
2022-10-18T14:38:03.747Z,3.45
2022-10-18T14:39:07.723Z,3.10
2022-10-18T14:40:28.009Z,3.00
2022-10-18T14:41:38.661Z,3.03
2022-10-18T14:42:48.698Z,3.30
2022-10-18T14:43:52.229Z,3.50
2022-10-18T14:44:56.486Z,2.95
2022-10-18T14:46:09.677Z,3.08
2022-10-18T14:47:22.030Z,3.30
2022-10-18T14:48:24.018Z,3.08
2022-10-18T14:49:26.012Z,3.08
2022-10-18T14:50:30.626Z,3.47
2022-10-18T14:51:35.591Z,3.10
2022-10-18T14:52:38.291Z,3.03
2022-10-18T14:53:40.638Z,2.92
2022-10-18T14:54:42.839Z,3.28
2022-10-18T14:55:53.841Z,3.30
2022-10-18T14:56:56.018Z,3.00
2022-10-18T14:57:58.522Z,3.10
2022-10-18T14:59:10.652Z,3.58
2022-10-18T15:01:32.385Z,3.35
2022-10-18T15:02:37.556Z,3.55
2022-10-18T15:03:39.310Z,3.47
2022-10-18T15:04:44.907Z,3.80
2022-10-18T15:06:02.212Z,4.20
2022-10-18T15:07:15.805Z,4.47
2022-10-18T15:08:17.801Z,6.40